Search for airport 
image banner adimage banner adimage banner ad
image banner ad

O43 - Yerington Muni

Located in Yerington, United States

ICAO - O43, IATA -

Data provided by Airmate  

General information

Coordinates: N39°0'20" W119°9'24"
Elevation is 4382 feet MSL.
Magnetic variation is 16° East
View others Airports in Nevada

Operational data

Special qualification required
Current time UTC:
Current local time:
Weather at : KMEV - Minden-Tahoe ( 51 km )
METAR: KMEV 130215Z AUTO 26010G21KT 10SM CLR 26/05 A2997 RMK AO2
TAF: KMEV 122320Z 1300/1324 29012G22KT P6SM FEW090 FM130400 12005KT P6SM SKC FM132100 27014G24KT P6SM FEW090
View NOTAMs / SUP AIP / TFR affecting this airport [VIEW]
Communications frequencies: [VIEW]

Runways:

RWY identifierQFULength (ft)Width (ft)SurfaceLDA (ft)
02581475ASPH
20581475ASPH

Airport contact information

Address: Yerington United States

Satellite view of O43